Terminal Aerodrome Forecast
Issued by NWS

Home | Current Version | Previous Version | Text Only | Print | Product List | Glossary On
Versions: 1 2 3 4 5 6 7 8 9 10 11 12 13 14 15 16 17 18 19 20 21 22
000
FTUS43 KDMX 232320
TAFFOD
TAF
KFOD 232320Z 2400/2424 36009KT P6SM FEW040 FEW050
     FM240200 01005KT P6SM SKC
     FM241100 VRB03KT 3SM BR FEW210
      TEMPO 2411/2413 VRB03KT 1/4SM FG BKN005
     FM241400 VRB03KT P6SM FEW180
     FM242000 13006KT P6SM FEW230=

USA.gov is the U.S. government's official web portal to all federal, state and local government web resources and services.